sensor_id;sensor_type;location;lat;lon;timestamp;temperature;humidity
23188;DHT22;11762;59.878;17.686;2023-02-27T00:01:13;-3.70;99.90
23188;DHT22;11762;59.878;17.686;2023-02-27T00:03:40;-3.80;99.90
23188;DHT22;11762;59.878;17.686;2023-02-27T00:06:08;-3.80;99.90
23188;DHT22;11762;59.878;17.686;2023-02-27T00:08:35;-3.70;99.90
23188;DHT22;11762;59.878;17.686;2023-02-27T00:11:03;-3.70;99.90
23188;DHT22;11762;59.878;17.686;2023-02-27T00:13:30;-3.60;99.90
23188;DHT22;11762;59.878;17.686;2023-02-27T00:15:57;-3.60;99.90
23188;DHT22;11762;59.878;17.686;2023-02-27T00:18:24;-3.50;99.90
23188;DHT22;11762;59.878;17.686;2023-02-27T00:20:51;-3.50;99.90
23188;DHT22;11762;59.878;17.686;2023-02-27T00:23:19;-3.50;99.90
23188;DHT22;11762;59.878;17.686;2023-02-27T00:25:46;-3.40;99.90
23188;DHT22;11762;59.878;17.686;2023-02-27T00:28:14;-3.40;99.90
23188;DHT22;11762;59.878;17.686;2023-02-27T00:30:41;-3.30;99.90
23188;DHT22;11762;59.878;17.686;2023-02-27T00:33:08;-3.40;99.90
23188;DHT22;11762;59.878;17.686;2023-02-27T00:35:35;-3.50;99.90
23188;DHT22;11762;59.878;17.686;2023-02-27T00:38:02;-3.70;99.90
23188;DHT22;11762;59.878;17.686;2023-02-27T00:40:30;-3.90;99.90
23188;DHT22;11762;59.878;17.686;2023-02-27T00:43:00;-4.00;99.90
23188;DHT22;11762;59.878;17.686;2023-02-27T00:45:27;-4.00;99.90
23188;DHT22;11762;59.878;17.686;2023-02-27T00:47:54;-4.00;99.90
23188;DHT22;11762;59.878;17.686;2023-02-27T00:50:21;-4.10;99.90
23188;DHT22;11762;59.878;17.686;2023-02-27T00:52:48;-4.20;99.90
23188;DHT22;11762;59.878;17.686;2023-02-27T00:55:15;-4.10;99.90
23188;DHT22;11762;59.878;17.686;2023-02-27T00:57:44;-4.10;99.90
23188;DHT22;11762;59.878;17.686;2023-02-27T01:00:12;-4.10;99.90
23188;DHT22;11762;59.878;17.686;2023-02-27T01:02:39;-4.00;99.90
23188;DHT22;11762;59.878;17.686;2023-02-27T01:05:06;-4.00;99.90
23188;DHT22;11762;59.878;17.686;2023-02-27T01:07:33;-3.90;99.90
23188;DHT22;11762;59.878;17.686;2023-02-27T01:10:02;-4.10;99.90
23188;DHT22;11762;59.878;17.686;2023-02-27T01:12:29;-4.30;99.90
23188;DHT22;11762;59.878;17.686;2023-02-27T01:14:57;-4.30;99.90
23188;DHT22;11762;59.878;17.686;2023-02-27T01:17:24;-4.30;99.90
23188;DHT22;11762;59.878;17.686;2023-02-27T01:19:52;-4.40;99.90
23188;DHT22;11762;59.878;17.686;2023-02-27T01:22:18;-4.30;99.90
23188;DHT22;11762;59.878;17.686;2023-02-27T01:24:45;-4.20;99.90
23188;DHT22;11762;59.878;17.686;2023-02-27T01:27:13;-4.10;99.90
23188;DHT22;11762;59.878;17.686;2023-02-27T01:29:40;-4.10;99.90
23188;DHT22;11762;59.878;17.686;2023-02-27T01:32:08;-4.20;99.90
23188;DHT22;11762;59.878;17.686;2023-02-27T01:34:35;-4.20;99.90
23188;DHT22;11762;59.878;17.686;2023-02-27T01:37:02;-4.10;99.90
23188;DHT22;11762;59.878;17.686;2023-02-27T01:39:29;-4.10;99.90
23188;DHT22;11762;59.878;17.686;2023-02-27T01:41:57;-4.00;99.90
23188;DHT22;11762;59.878;17.686;2023-02-27T01:44:26;-4.00;99.90
23188;DHT22;11762;59.878;17.686;2023-02-27T01:46:53;-4.10;99.90
23188;DHT22;11762;59.878;17.686;2023-02-27T01:49:25;-4.20;99.90
23188;DHT22;11762;59.878;17.686;2023-02-27T01:51:55;-4.30;99.90
23188;DHT22;11762;59.878;17.686;2023-02-27T01:54:27;-4.20;99.90
23188;DHT22;11762;59.878;17.686;2023-02-27T01:56:55;-4.20;99.90
23188;DHT22;11762;59.878;17.686;2023-02-27T01:59:22;-4.30;99.90
23188;DHT22;11762;59.878;17.686;2023-02-27T02:01:50;-4.30;99.90
23188;DHT22;11762;59.878;17.686;2023-02-27T02:04:23;-4.30;99.90
23188;DHT22;11762;59.878;17.686;2023-02-27T02:06:55;-4.30;99.90
23188;DHT22;11762;59.878;17.686;2023-02-27T02:09:24;-4.20;99.90
23188;DHT22;11762;59.878;17.686;2023-02-27T02:11:52;-4.10;99.90
23188;DHT22;11762;59.878;17.686;2023-02-27T02:14:20;-4.00;99.90
23188;DHT22;11762;59.878;17.686;2023-02-27T02:16:57;-3.80;99.90
23188;DHT22;11762;59.878;17.686;2023-02-27T02:19:52;-3.70;99.90
23188;DHT22;11762;59.878;17.686;2023-02-27T02:26:01;-3.50;99.90
23188;DHT22;11762;59.878;17.686;2023-02-27T02:29:08;-3.30;99.90
23188;DHT22;11762;59.878;17.686;2023-02-27T02:40:37;-2.70;99.90
23188;DHT22;11762;59.878;17.686;2023-02-27T02:43:11;-2.70;99.90
23188;DHT22;11762;59.878;17.686;2023-02-27T02:45:49;-2.70;99.90
23188;DHT22;11762;59.878;17.686;2023-02-27T02:48:21;-2.70;99.90
23188;DHT22;11762;59.878;17.686;2023-02-27T02:50:55;-2.70;99.90
23188;DHT22;11762;59.878;17.686;2023-02-27T02:53:29;-2.70;99.90
23188;DHT22;11762;59.878;17.686;2023-02-27T02:56:03;-2.60;99.90
23188;DHT22;11762;59.878;17.686;2023-02-27T02:58:34;-2.60;99.90
23188;DHT22;11762;59.878;17.686;2023-02-27T03:01:07;-2.50;99.90
23188;DHT22;11762;59.878;17.686;2023-02-27T03:03:40;-2.40;99.90
23188;DHT22;11762;59.878;17.686;2023-02-27T03:06:13;-2.30;99.90
23188;DHT22;11762;59.878;17.686;2023-02-27T03:08:45;-2.20;99.90
23188;DHT22;11762;59.878;17.686;2023-02-27T03:11:15;-1.90;99.90
23188;DHT22;11762;59.878;17.686;2023-02-27T03:13:46;-1.80;99.90
23188;DHT22;11762;59.878;17.686;2023-02-27T03:16:20;-1.60;99.90
23188;DHT22;11762;59.878;17.686;2023-02-27T03:18:52;-1.50;99.90
23188;DHT22;11762;59.878;17.686;2023-02-27T03:21:25;-1.40;99.90
23188;DHT22;11762;59.878;17.686;2023-02-27T03:23:56;-1.40;99.90
23188;DHT22;11762;59.878;17.686;2023-02-27T03:26:31;-1.80;99.90
23188;DHT22;11762;59.878;17.686;2023-02-27T03:29:00;-1.90;99.90
23188;DHT22;11762;59.878;17.686;2023-02-27T03:31:33;-1.90;99.90
23188;DHT22;11762;59.878;17.686;2023-02-27T03:34:07;-1.90;99.90
23188;DHT22;11762;59.878;17.686;2023-02-27T03:36:42;-1.90;99.90
23188;DHT22;11762;59.878;17.686;2023-02-27T03:39:19;-1.80;99.90
23188;DHT22;11762;59.878;17.686;2023-02-27T03:41:54;-1.80;99.90
23188;DHT22;11762;59.878;17.686;2023-02-27T03:44:29;-1.80;99.90
23188;DHT22;11762;59.878;17.686;2023-02-27T03:46:58;-1.80;99.90
23188;DHT22;11762;59.878;17.686;2023-02-27T03:49:25;-1.80;99.90
23188;DHT22;11762;59.878;17.686;2023-02-27T03:51:53;-1.80;99.90
23188;DHT22;11762;59.878;17.686;2023-02-27T03:54:23;-1.80;99.90
23188;DHT22;11762;59.878;17.686;2023-02-27T03:56:57;-1.70;99.90
23188;DHT22;11762;59.878;17.686;2023-02-27T03:59:26;-1.60;99.90
23188;DHT22;11762;59.878;17.686;2023-02-27T04:01:54;-1.50;99.90
23188;DHT22;11762;59.878;17.686;2023-02-27T04:04:23;-1.40;99.90
23188;DHT22;11762;59.878;17.686;2023-02-27T04:06:57;-1.30;99.90
23188;DHT22;11762;59.878;17.686;2023-02-27T04:15:40;-0.70;99.90
23188;DHT22;11762;59.878;17.686;2023-02-27T04:18:20;-0.70;99.90
23188;DHT22;11762;59.878;17.686;2023-02-27T04:20:53;-1.00;99.90
23188;DHT22;11762;59.878;17.686;2023-02-27T04:23:25;-1.00;99.90
23188;DHT22;11762;59.878;17.686;2023-02-27T04:26:06;-1.10;99.90
23188;DHT22;11762;59.878;17.686;2023-02-27T04:28:42;-1.10;99.90
23188;DHT22;11762;59.878;17.686;2023-02-27T04:31:15;-1.00;99.90
23188;DHT22;11762;59.878;17.686;2023-02-27T04:33:47;-1.00;99.90
23188;DHT22;11762;59.878;17.686;2023-02-27T04:36:17;-1.00;99.90
23188;DHT22;11762;59.878;17.686;2023-02-27T04:38:52;-0.90;99.90
23188;DHT22;11762;59.878;17.686;2023-02-27T04:41:24;-0.90;99.90
23188;DHT22;11762;59.878;17.686;2023-02-27T04:43:56;-0.80;99.90
23188;DHT22;11762;59.878;17.686;2023-02-27T04:46:26;-0.80;99.90
23188;DHT22;11762;59.878;17.686;2023-02-27T04:48:58;-0.70;99.90
23188;DHT22;11762;59.878;17.686;2023-02-27T04:51:32;-0.70;99.90
23188;DHT22;11762;59.878;17.686;2023-02-27T04:54:05;-0.70;99.90
23188;DHT22;11762;59.878;17.686;2023-02-27T04:56:36;-0.70;99.90
23188;DHT22;11762;59.878;17.686;2023-02-27T04:59:08;-0.60;99.90
23188;DHT22;11762;59.878;17.686;2023-02-27T05:01:40;-0.60;99.90
23188;DHT22;11762;59.878;17.686;2023-02-27T05:04:09;-0.60;99.90
23188;DHT22;11762;59.878;17.686;2023-02-27T05:06:40;-0.60;99.90
23188;DHT22;11762;59.878;17.686;2023-02-27T05:09:13;-0.60;99.90
23188;DHT22;11762;59.878;17.686;2023-02-27T05:11:48;-0.50;99.90
23188;DHT22;11762;59.878;17.686;2023-02-27T05:14:21;-0.50;99.90
23188;DHT22;11762;59.878;17.686;2023-02-27T05:16:52;-0.50;99.90
23188;DHT22;11762;59.878;17.686;2023-02-27T05:19:20;-0.40;99.90
23188;DHT22;11762;59.878;17.686;2023-02-27T05:21:50;-0.40;99.90
23188;DHT22;11762;59.878;17.686;2023-02-27T05:24:23;-0.40;99.90
23188;DHT22;11762;59.878;17.686;2023-02-27T05:27:05;-0.30;99.90
23188;DHT22;11762;59.878;17.686;2023-02-27T05:29:41;-0.30;99.90
23188;DHT22;11762;59.878;17.686;2023-02-27T05:32:23;-0.20;99.90
23188;DHT22;11762;59.878;17.686;2023-02-27T05:34:56;-0.10;99.90
23188;DHT22;11762;59.878;17.686;2023-02-27T05:37:31;0.00;99.90
23188;DHT22;11762;59.878;17.686;2023-02-27T05:40:00;0.00;99.90
23188;DHT22;11762;59.878;17.686;2023-02-27T05:42:34;0.10;99.90
23188;DHT22;11762;59.878;17.686;2023-02-27T05:45:08;0.10;99.90
23188;DHT22;11762;59.878;17.686;2023-02-27T05:47:39;0.20;99.90
23188;DHT22;11762;59.878;17.686;2023-02-27T05:50:10;0.20;99.90
23188;DHT22;11762;59.878;17.686;2023-02-27T05:52:39;0.20;99.90
23188;DHT22;11762;59.878;17.686;2023-02-27T05:55:11;0.20;99.90
23188;DHT22;11762;59.878;17.686;2023-02-27T05:57:43;0.30;99.90
23188;DHT22;11762;59.878;17.686;2023-02-27T06:00:15;0.30;99.90
23188;DHT22;11762;59.878;17.686;2023-02-27T06:02:44;0.40;99.90
23188;DHT22;11762;59.878;17.686;2023-02-27T06:05:14;0.50;99.90
23188;DHT22;11762;59.878;17.686;2023-02-27T06:07:42;0.50;99.90
23188;DHT22;11762;59.878;17.686;2023-02-27T06:10:12;0.60;99.90
23188;DHT22;11762;59.878;17.686;2023-02-27T06:12:40;0.60;99.90
23188;DHT22;11762;59.878;17.686;2023-02-27T06:15:08;0.60;99.90
23188;DHT22;11762;59.878;17.686;2023-02-27T06:17:36;0.40;99.90
23188;DHT22;11762;59.878;17.686;2023-02-27T06:20:04;0.50;99.90
23188;DHT22;11762;59.878;17.686;2023-02-27T06:22:32;0.60;99.90
23188;DHT22;11762;59.878;17.686;2023-02-27T06:24:59;0.70;99.90
23188;DHT22;11762;59.878;17.686;2023-02-27T06:27:26;0.80;99.90
23188;DHT22;11762;59.878;17.686;2023-02-27T06:29:53;0.80;99.90
23188;DHT22;11762;59.878;17.686;2023-02-27T06:32:20;0.80;99.90
23188;DHT22;11762;59.878;17.686;2023-02-27T06:34:51;0.90;99.90
23188;DHT22;11762;59.878;17.686;2023-02-27T06:37:19;1.00;99.90
23188;DHT22;11762;59.878;17.686;2023-02-27T06:39:46;1.10;99.90
23188;DHT22;11762;59.878;17.686;2023-02-27T06:42:14;1.20;99.90
23188;DHT22;11762;59.878;17.686;2023-02-27T06:44:41;1.30;99.90
23188;DHT22;11762;59.878;17.686;2023-02-27T06:47:08;1.40;99.90
23188;DHT22;11762;59.878;17.686;2023-02-27T06:49:35;1.40;99.90
23188;DHT22;11762;59.878;17.686;2023-02-27T06:52:04;1.50;99.90
23188;DHT22;11762;59.878;17.686;2023-02-27T06:54:31;1.50;99.90
23188;DHT22;11762;59.878;17.686;2023-02-27T06:56:58;1.60;99.90
23188;DHT22;11762;59.878;17.686;2023-02-27T06:59:25;1.70;99.90
23188;DHT22;11762;59.878;17.686;2023-02-27T07:01:52;1.70;99.90
23188;DHT22;11762;59.878;17.686;2023-02-27T07:04:20;1.80;99.90
23188;DHT22;11762;59.878;17.686;2023-02-27T07:06:46;1.80;99.90
23188;DHT22;11762;59.878;17.686;2023-02-27T07:09:15;1.90;99.90
23188;DHT22;11762;59.878;17.686;2023-02-27T07:11:42;2.00;99.90
23188;DHT22;11762;59.878;17.686;2023-02-27T07:14:09;2.10;99.90
23188;DHT22;11762;59.878;17.686;2023-02-27T07:16:37;2.10;99.90
23188;DHT22;11762;59.878;17.686;2023-02-27T07:19:04;2.20;99.90
23188;DHT22;11762;59.878;17.686;2023-02-27T07:21:31;2.20;99.90
23188;DHT22;11762;59.878;17.686;2023-02-27T07:23:58;2.30;99.90
23188;DHT22;11762;59.878;17.686;2023-02-27T07:26:26;2.30;99.90
23188;DHT22;11762;59.878;17.686;2023-02-27T07:28:53;2.30;99.90
23188;DHT22;11762;59.878;17.686;2023-02-27T07:31:21;2.40;99.90
23188;DHT22;11762;59.878;17.686;2023-02-27T07:33:48;2.40;99.90
23188;DHT22;11762;59.878;17.686;2023-02-27T07:36:15;2.40;99.90
23188;DHT22;11762;59.878;17.686;2023-02-27T07:38:42;2.50;99.90
23188;DHT22;11762;59.878;17.686;2023-02-27T07:41:09;2.50;99.90
23188;DHT22;11762;59.878;17.686;2023-02-27T07:43:37;2.50;99.90
23188;DHT22;11762;59.878;17.686;2023-02-27T07:46:04;2.50;99.90
23188;DHT22;11762;59.878;17.686;2023-02-27T07:48:32;2.60;99.90
23188;DHT22;11762;59.878;17.686;2023-02-27T07:51:00;2.60;99.90
23188;DHT22;11762;59.878;17.686;2023-02-27T07:53:27;2.60;99.90
23188;DHT22;11762;59.878;17.686;2023-02-27T07:55:54;2.60;99.90
23188;DHT22;11762;59.878;17.686;2023-02-27T07:58:21;2.60;99.90
23188;DHT22;11762;59.878;17.686;2023-02-27T08:00:51;2.60;99.90
23188;DHT22;11762;59.878;17.686;2023-02-27T08:03:18;2.70;99.90
23188;DHT22;11762;59.878;17.686;2023-02-27T08:05:45;2.80;99.90
23188;DHT22;11762;59.878;17.686;2023-02-27T08:08:13;2.80;99.90
23188;DHT22;11762;59.878;17.686;2023-02-27T08:10:40;2.80;99.90
23188;DHT22;11762;59.878;17.686;2023-02-27T08:13:07;2.70;99.90
23188;DHT22;11762;59.878;17.686;2023-02-27T08:15:34;2.70;99.90
23188;DHT22;11762;59.878;17.686;2023-02-27T08:18:03;2.70;99.90
23188;DHT22;11762;59.878;17.686;2023-02-27T08:20:30;2.80;99.90
23188;DHT22;11762;59.878;17.686;2023-02-27T08:22:57;2.80;99.90
23188;DHT22;11762;59.878;17.686;2023-02-27T08:25:24;3.00;99.90
23188;DHT22;11762;59.878;17.686;2023-02-27T08:27:51;3.10;99.90
23188;DHT22;11762;59.878;17.686;2023-02-27T08:30:18;3.20;99.90
23188;DHT22;11762;59.878;17.686;2023-02-27T08:32:45;3.30;99.90
23188;DHT22;11762;59.878;17.686;2023-02-27T08:35:14;3.40;99.90
23188;DHT22;11762;59.878;17.686;2023-02-27T08:37:41;3.40;99.90
23188;DHT22;11762;59.878;17.686;2023-02-27T08:40:09;3.60;99.90
23188;DHT22;11762;59.878;17.686;2023-02-27T08:42:36;3.70;99.90
23188;DHT22;11762;59.878;17.686;2023-02-27T08:45:04;3.90;99.90
23188;DHT22;11762;59.878;17.686;2023-02-27T08:47:31;4.10;99.90
23188;DHT22;11762;59.878;17.686;2023-02-27T08:49:58;4.20;99.90
23188;DHT22;11762;59.878;17.686;2023-02-27T08:52:26;4.10;99.90
23188;DHT22;11762;59.878;17.686;2023-02-27T08:54:53;4.20;99.90
23188;DHT22;11762;59.878;17.686;2023-02-27T08:57:20;4.20;99.90
23188;DHT22;11762;59.878;17.686;2023-02-27T08:59:48;4.30;99.90
23188;DHT22;11762;59.878;17.686;2023-02-27T09:02:15;4.30;99.90
23188;DHT22;11762;59.878;17.686;2023-02-27T09:04:42;4.30;99.90
23188;DHT22;11762;59.878;17.686;2023-02-27T09:07:09;4.30;99.90
23188;DHT22;11762;59.878;17.686;2023-02-27T09:09:37;4.40;99.90
23188;DHT22;11762;59.878;17.686;2023-02-27T09:12:04;4.50;99.90
23188;DHT22;11762;59.878;17.686;2023-02-27T09:14:31;4.60;99.90
23188;DHT22;11762;59.878;17.686;2023-02-27T09:16:58;4.60;99.90
23188;DHT22;11762;59.878;17.686;2023-02-27T09:19:26;4.70;99.90
23188;DHT22;11762;59.878;17.686;2023-02-27T09:21:52;4.60;99.90
23188;DHT22;11762;59.878;17.686;2023-02-27T09:24:19;4.80;99.90
23188;DHT22;11762;59.878;17.686;2023-02-27T09:26:48;4.80;99.90
23188;DHT22;11762;59.878;17.686;2023-02-27T09:29:16;4.90;99.90
23188;DHT22;11762;59.878;17.686;2023-02-27T09:31:43;5.00;99.90
23188;DHT22;11762;59.878;17.686;2023-02-27T09:34:10;5.00;99.90
23188;DHT22;11762;59.878;17.686;2023-02-27T09:36:37;5.00;99.90
23188;DHT22;11762;59.878;17.686;2023-02-27T09:39:04;5.10;99.90
23188;DHT22;11762;59.878;17.686;2023-02-27T09:41:41;5.10;99.90
23188;DHT22;11762;59.878;17.686;2023-02-27T09:44:23;5.20;99.90
23188;DHT22;11762;59.878;17.686;2023-02-27T09:46:51;5.30;99.90
23188;DHT22;11762;59.878;17.686;2023-02-27T09:49:20;5.40;99.90
23188;DHT22;11762;59.878;17.686;2023-02-27T09:51:50;5.50;99.90
23188;DHT22;11762;59.878;17.686;2023-02-27T09:54:18;5.40;99.90
23188;DHT22;11762;59.878;17.686;2023-02-27T09:56:48;5.50;99.90
23188;DHT22;11762;59.878;17.686;2023-02-27T09:59:28;5.60;99.90
23188;DHT22;11762;59.878;17.686;2023-02-27T10:02:00;5.60;99.90
23188;DHT22;11762;59.878;17.686;2023-02-27T10:04:35;5.70;99.90
23188;DHT22;11762;59.878;17.686;2023-02-27T10:07:12;5.70;99.90
23188;DHT22;11762;59.878;17.686;2023-02-27T10:09:49;5.70;99.90
23188;DHT22;11762;59.878;17.686;2023-02-27T10:12:28;5.90;99.90
23188;DHT22;11762;59.878;17.686;2023-02-27T10:15:07;6.00;99.90
23188;DHT22;11762;59.878;17.686;2023-02-27T10:17:38;6.00;99.90
23188;DHT22;11762;59.878;17.686;2023-02-27T10:20:13;6.00;99.90
23188;DHT22;11762;59.878;17.686;2023-02-27T10:22:44;6.00;99.90
23188;DHT22;11762;59.878;17.686;2023-02-27T10:25:15;6.10;99.90
23188;DHT22;11762;59.878;17.686;2023-02-27T10:27:45;6.10;99.90
23188;DHT22;11762;59.878;17.686;2023-02-27T10:30:20;6.20;99.90
23188;DHT22;11762;59.878;17.686;2023-02-27T10:32:50;6.10;99.90
23188;DHT22;11762;59.878;17.686;2023-02-27T10:35:26;6.10;99.90
23188;DHT22;11762;59.878;17.686;2023-02-27T10:37:59;6.20;99.90
23188;DHT22;11762;59.878;17.686;2023-02-27T10:40:28;6.30;99.90
23188;DHT22;11762;59.878;17.686;2023-02-27T10:42:58;6.40;99.90
23188;DHT22;11762;59.878;17.686;2023-02-27T10:45:27;6.50;99.90
23188;DHT22;11762;59.878;17.686;2023-02-27T10:47:55;6.50;99.90
23188;DHT22;11762;59.878;17.686;2023-02-27T10:50:25;6.50;99.90
23188;DHT22;11762;59.878;17.686;2023-02-27T10:52:55;6.50;99.90
23188;DHT22;11762;59.878;17.686;2023-02-27T10:55:25;6.50;99.90
23188;DHT22;11762;59.878;17.686;2023-02-27T10:57:53;6.60;99.90
23188;DHT22;11762;59.878;17.686;2023-02-27T11:00:36;6.60;99.90
23188;DHT22;11762;59.878;17.686;2023-02-27T11:03:04;6.60;99.90
23188;DHT22;11762;59.878;17.686;2023-02-27T11:05:34;6.70;99.90
23188;DHT22;11762;59.878;17.686;2023-02-27T11:08:13;6.70;99.90
23188;DHT22;11762;59.878;17.686;2023-02-27T11:10:57;6.70;99.90
23188;DHT22;11762;59.878;17.686;2023-02-27T11:13:26;6.80;99.90
23188;DHT22;11762;59.878;17.686;2023-02-27T11:16:05;6.70;99.90
23188;DHT22;11762;59.878;17.686;2023-02-27T11:18:33;6.80;99.90
23188;DHT22;11762;59.878;17.686;2023-02-27T11:21:17;6.50;99.90
23188;DHT22;11762;59.878;17.686;2023-02-27T11:23:56;6.50;99.90
23188;DHT22;11762;59.878;17.686;2023-02-27T11:26:29;6.50;99.90
23188;DHT22;11762;59.878;17.686;2023-02-27T11:29:12;6.50;99.90
23188;DHT22;11762;59.878;17.686;2023-02-27T11:31:50;6.50;99.90
23188;DHT22;11762;59.878;17.686;2023-02-27T11:34:29;6.70;99.90
23188;DHT22;11762;59.878;17.686;2023-02-27T11:36:59;6.90;99.90
23188;DHT22;11762;59.878;17.686;2023-02-27T11:39:30;6.90;99.90
23188;DHT22;11762;59.878;17.686;2023-02-27T11:42:13;6.90;99.90
23188;DHT22;11762;59.878;17.686;2023-02-27T11:44:49;7.00;99.90
23188;DHT22;11762;59.878;17.686;2023-02-27T11:47:21;7.10;99.90
23188;DHT22;11762;59.878;17.686;2023-02-27T11:50:11;7.10;99.90
23188;DHT22;11762;59.878;17.686;2023-02-27T11:52:48;7.10;99.90
23188;DHT22;11762;59.878;17.686;2023-02-27T11:55:20;7.00;99.90
23188;DHT22;11762;59.878;17.686;2023-02-27T11:57:51;6.90;99.90
23188;DHT22;11762;59.878;17.686;2023-02-27T12:00:24;6.90;99.90
23188;DHT22;11762;59.878;17.686;2023-02-27T12:02:57;6.90;99.90
23188;DHT22;11762;59.878;17.686;2023-02-27T12:05:28;6.90;99.90
23188;DHT22;11762;59.878;17.686;2023-02-27T12:08:01;7.00;99.90
23188;DHT22;11762;59.878;17.686;2023-02-27T12:10:37;7.00;99.90
23188;DHT22;11762;59.878;17.686;2023-02-27T12:13:11;6.90;99.90
23188;DHT22;11762;59.878;17.686;2023-02-27T12:15:44;6.90;99.90
23188;DHT22;11762;59.878;17.686;2023-02-27T12:18:17;7.00;99.90
23188;DHT22;11762;59.878;17.686;2023-02-27T12:20:51;7.10;99.90
23188;DHT22;11762;59.878;17.686;2023-02-27T12:23:25;7.20;99.90
23188;DHT22;11762;59.878;17.686;2023-02-27T12:25:58;7.40;99.90
23188;DHT22;11762;59.878;17.686;2023-02-27T12:28:41;7.40;99.90
23188;DHT22;11762;59.878;17.686;2023-02-27T12:31:34;7.40;99.90
23188;DHT22;11762;59.878;17.686;2023-02-27T12:34:24;7.50;99.90
23188;DHT22;11762;59.878;17.686;2023-02-27T12:36:59;7.60;99.90
23188;DHT22;11762;59.878;17.686;2023-02-27T12:39:27;7.60;99.90
23188;DHT22;11762;59.878;17.686;2023-02-27T12:42:19;7.60;99.90
23188;DHT22;11762;59.878;17.686;2023-02-27T12:45:14;7.70;99.90
23188;DHT22;11762;59.878;17.686;2023-02-27T12:47:47;7.70;99.90
23188;DHT22;11762;59.878;17.686;2023-02-27T12:50:20;7.60;99.90
23188;DHT22;11762;59.878;17.686;2023-02-27T12:53:00;7.60;99.90
23188;DHT22;11762;59.878;17.686;2023-02-27T12:55:30;7.70;99.90
23188;DHT22;11762;59.878;17.686;2023-02-27T12:58:15;7.70;99.90
23188;DHT22;11762;59.878;17.686;2023-02-27T13:00:45;7.80;99.90
23188;DHT22;11762;59.878;17.686;2023-02-27T13:03:16;7.60;99.90
23188;DHT22;11762;59.878;17.686;2023-02-27T13:05:54;7.60;99.90
23188;DHT22;11762;59.878;17.686;2023-02-27T13:08:38;7.70;99.90
23188;DHT22;11762;59.878;17.686;2023-02-27T13:11:16;7.60;99.90
23188;DHT22;11762;59.878;17.686;2023-02-27T13:13:48;7.40;99.90
23188;DHT22;11762;59.878;17.686;2023-02-27T13:16:21;7.20;99.90
23188;DHT22;11762;59.878;17.686;2023-02-27T13:18:53;7.20;99.90
23188;DHT22;11762;59.878;17.686;2023-02-27T13:21:27;7.20;99.90
23188;DHT22;11762;59.878;17.686;2023-02-27T13:24:05;7.10;99.90
23188;DHT22;11762;59.878;17.686;2023-02-27T13:26:36;7.00;99.90
23188;DHT22;11762;59.878;17.686;2023-02-27T19:14:37;3.10;99.90
23188;DHT22;11762;59.878;17.686;2023-02-27T19:17:04;3.00;99.90
23188;DHT22;11762;59.878;17.686;2023-02-27T19:19:31;3.00;99.90
23188;DHT22;11762;59.878;17.686;2023-02-27T19:21:59;3.00;99.90
23188;DHT22;11762;59.878;17.686;2023-02-27T19:24:26;3.00;99.90
23188;DHT22;11762;59.878;17.686;2023-02-27T19:26:53;2.90;99.90
23188;DHT22;11762;59.878;17.686;2023-02-27T19:29:20;2.80;99.90
23188;DHT22;11762;59.878;17.686;2023-02-27T19:31:48;2.70;99.90
23188;DHT22;11762;59.878;17.686;2023-02-27T19:34:15;2.60;99.90
23188;DHT22;11762;59.878;17.686;2023-02-27T19:36:42;2.60;99.90
23188;DHT22;11762;59.878;17.686;2023-02-27T19:39:09;2.60;99.90
23188;DHT22;11762;59.878;17.686;2023-02-27T19:41:37;2.60;99.90
23188;DHT22;11762;59.878;17.686;2023-02-27T19:44:04;2.50;99.90
23188;DHT22;11762;59.878;17.686;2023-02-27T19:46:33;2.60;99.90
23188;DHT22;11762;59.878;17.686;2023-02-27T19:49:03;2.50;99.90
23188;DHT22;11762;59.878;17.686;2023-02-27T19:51:30;2.40;99.90
23188;DHT22;11762;59.878;17.686;2023-02-27T19:53:58;2.40;99.90
23188;DHT22;11762;59.878;17.686;2023-02-27T19:56:26;2.40;99.90
23188;DHT22;11762;59.878;17.686;2023-02-27T19:58:54;2.40;99.90
23188;DHT22;11762;59.878;17.686;2023-02-27T20:01:24;2.40;99.90
23188;DHT22;11762;59.878;17.686;2023-02-27T20:03:52;2.40;99.90
23188;DHT22;11762;59.878;17.686;2023-02-27T20:06:23;2.30;99.90
23188;DHT22;11762;59.878;17.686;2023-02-27T20:08:51;2.30;99.90
23188;DHT22;11762;59.878;17.686;2023-02-27T20:11:19;2.30;99.90
23188;DHT22;11762;59.878;17.686;2023-02-27T20:13:47;2.40;99.90
23188;DHT22;11762;59.878;17.686;2023-02-27T20:16:16;2.40;99.90
23188;DHT22;11762;59.878;17.686;2023-02-27T20:18:44;2.40;99.90
23188;DHT22;11762;59.878;17.686;2023-02-27T20:21:13;2.40;99.90
23188;DHT22;11762;59.878;17.686;2023-02-27T20:23:43;2.40;99.90
23188;DHT22;11762;59.878;17.686;2023-02-27T20:26:15;2.40;99.90
23188;DHT22;11762;59.878;17.686;2023-02-27T20:28:44;2.40;99.90
23188;DHT22;11762;59.878;17.686;2023-02-27T20:31:13;2.40;99.90
23188;DHT22;11762;59.878;17.686;2023-02-27T20:33:41;2.40;99.90
23188;DHT22;11762;59.878;17.686;2023-02-27T20:36:09;2.40;99.90
23188;DHT22;11762;59.878;17.686;2023-02-27T20:38:37;2.40;99.90
23188;DHT22;11762;59.878;17.686;2023-02-27T20:41:06;2.30;99.90
23188;DHT22;11762;59.878;17.686;2023-02-27T20:43:34;2.30;99.90
23188;DHT22;11762;59.878;17.686;2023-02-27T20:46:03;2.30;99.90
23188;DHT22;11762;59.878;17.686;2023-02-27T20:48:31;2.30;99.90
23188;DHT22;11762;59.878;17.686;2023-02-27T20:51:04;2.30;99.90
23188;DHT22;11762;59.878;17.686;2023-02-27T20:53:33;2.30;99.90
23188;DHT22;11762;59.878;17.686;2023-02-27T20:56:01;2.20;99.90
23188;DHT22;11762;59.878;17.686;2023-02-27T20:58:29;2.20;99.90
23188;DHT22;11762;59.878;17.686;2023-02-27T21:00:57;2.20;99.90
23188;DHT22;11762;59.878;17.686;2023-02-27T21:03:24;2.30;99.90
23188;DHT22;11762;59.878;17.686;2023-02-27T21:05:51;2.30;99.90
23188;DHT22;11762;59.878;17.686;2023-02-27T21:08:18;2.30;99.90
23188;DHT22;11762;59.878;17.686;2023-02-27T21:10:46;2.30;99.90
23188;DHT22;11762;59.878;17.686;2023-02-27T21:13:16;2.30;99.90
23188;DHT22;11762;59.878;17.686;2023-02-27T21:15:45;2.30;99.90
23188;DHT22;11762;59.878;17.686;2023-02-27T21:18:12;2.20;99.90
23188;DHT22;11762;59.878;17.686;2023-02-27T21:20:40;2.20;99.90
23188;DHT22;11762;59.878;17.686;2023-02-27T21:23:07;2.10;99.90
23188;DHT22;11762;59.878;17.686;2023-02-27T21:25:39;2.00;99.90
23188;DHT22;11762;59.878;17.686;2023-02-27T21:28:06;1.90;99.90
23188;DHT22;11762;59.878;17.686;2023-02-27T21:30:34;1.90;99.90
23188;DHT22;11762;59.878;17.686;2023-02-27T21:33:03;1.80;99.90
23188;DHT22;11762;59.878;17.686;2023-02-27T21:35:31;1.80;99.90
23188;DHT22;11762;59.878;17.686;2023-02-27T21:37:58;1.70;99.90
23188;DHT22;11762;59.878;17.686;2023-02-27T21:40:25;1.70;99.90
23188;DHT22;11762;59.878;17.686;2023-02-27T21:42:52;1.70;99.90
23188;DHT22;11762;59.878;17.686;2023-02-27T21:45:19;1.70;99.90
23188;DHT22;11762;59.878;17.686;2023-02-27T21:47:46;1.60;99.90
23188;DHT22;11762;59.878;17.686;2023-02-27T21:50:15;1.60;99.90